createdAt,value
2023-05-25T00:00:41.872Z,1.67
2023-05-25T00:02:56.496Z,1.33
2023-05-25T00:05:01.249Z,1.60
2023-05-25T00:09:08.845Z,1.30
2023-05-25T00:11:12.597Z,1.40
2023-05-25T00:13:16.277Z,1.60
2023-05-25T00:15:19.981Z,1.33
2023-05-25T00:17:24.535Z,1.50
2023-05-25T00:19:29.695Z,2.17
2023-05-25T00:21:34.534Z,1.48
2023-05-25T00:23:38.333Z,1.42
2023-05-25T00:25:42.228Z,1.20
2023-05-25T00:27:46.115Z,1.00
2023-05-25T00:29:49.784Z,1.25
2023-05-25T00:31:53.691Z,1.80
2023-05-25T00:33:57.451Z,1.35
2023-05-25T00:36:03.802Z,1.50
2023-05-25T00:38:07.325Z,1.10
2023-05-25T00:40:16.097Z,1.30
2023-05-25T00:42:20.855Z,1.40
2023-05-25T00:44:24.508Z,1.25
2023-05-25T00:46:29.379Z,1.65
2023-05-25T00:48:33.838Z,1.20
2023-05-25T00:50:40.816Z,1.35
2023-05-25T00:52:46.099Z,1.30
2023-05-25T00:54:53.599Z,1.15
2023-05-25T00:57:19.194Z,1.23
2023-05-25T00:59:31.088Z,1.58
2023-05-25T01:01:40.480Z,1.38
2023-05-25T01:03:47.690Z,1.45
2023-05-25T01:05:52.867Z,1.00
2023-05-25T01:08:02.041Z,1.20
2023-05-25T01:10:09.312Z,1.10
2023-05-25T01:12:15.863Z,1.10
2023-05-25T01:14:55.986Z,1.10
2023-05-25T01:17:20.683Z,1.30
2023-05-25T01:19:24.430Z,1.23
2023-05-25T01:21:38.371Z,1.20
2023-05-25T01:23:48.011Z,1.30
2023-05-25T01:25:56.567Z,1.27
2023-05-25T01:28:05.872Z,1.30
2023-05-25T01:30:14.258Z,1.02
2023-05-25T01:32:20.206Z,1.23
2023-05-25T01:34:25.044Z,1.13
2023-05-25T01:36:30.122Z,1.30
2023-05-25T01:38:33.962Z,1.50
2023-05-25T01:40:37.603Z,1.40
2023-05-25T01:42:41.140Z,1.27
2023-05-25T01:44:45.714Z,1.38
2023-05-25T01:50:01.455Z,1.40
2023-05-25T01:52:17.482Z,1.55
2023-05-25T01:54:23.113Z,1.98
2023-05-25T01:56:30.692Z,1.90
2023-05-25T01:58:41.838Z,1.33
2023-05-25T02:00:50.521Z,1.40
2023-05-25T02:02:56.823Z,1.48
2023-05-25T02:05:01.313Z,1.40
2023-05-25T02:07:07.328Z,1.63
2023-05-25T02:09:11.307Z,1.25
2023-05-25T02:11:15.950Z,1.67
2023-05-25T02:13:19.715Z,1.73
2023-05-25T02:15:23.647Z,1.48
2023-05-25T02:17:28.936Z,1.90
2023-05-25T02:19:32.667Z,1.60
2023-05-25T02:21:38.387Z,1.85
2023-05-25T02:23:43.475Z,1.80
2023-05-25T02:25:47.132Z,1.70
2023-05-25T02:27:50.751Z,1.90
2023-05-25T02:29:54.617Z,1.50
2023-05-25T02:32:02.288Z,1.52
2023-05-25T02:34:06.156Z,2.08
2023-05-25T02:36:10.283Z,1.85
2023-05-25T02:38:14.129Z,1.50
2023-05-25T02:40:20.655Z,1.67
2023-05-25T02:42:24.457Z,1.85
2023-05-25T02:44:28.237Z,2.35
2023-05-25T02:46:33.933Z,1.65
2023-05-25T02:48:37.669Z,1.52
2023-05-25T02:50:41.415Z,1.63
2023-05-25T02:52:49.264Z,1.58
2023-05-25T02:54:53.024Z,1.60
2023-05-25T02:57:06.300Z,1.75
2023-05-25T02:59:10.387Z,1.83
2023-05-25T03:01:19.065Z,1.77
2023-05-25T03:03:29.685Z,1.88
2023-05-25T03:05:35.389Z,1.90
2023-05-25T03:07:39.117Z,1.85
2023-05-25T03:09:42.556Z,2.03
2023-05-25T03:11:45.963Z,2.33
2023-05-25T03:13:54.562Z,2.80
2023-05-25T03:15:59.091Z,1.80
2023-05-25T03:18:02.636Z,1.80
2023-05-25T03:20:11.952Z,1.60
2023-05-25T03:22:20.017Z,1.65
2023-05-25T03:24:23.837Z,1.90
2023-05-25T03:26:29.106Z,2.13
2023-05-25T03:28:32.502Z,2.00
2023-05-25T03:30:37.663Z,1.85
2023-05-25T03:32:41.942Z,2.40
2023-05-25T03:34:45.397Z,1.80
2023-05-25T03:36:53.595Z,1.90
2023-05-25T03:38:57.091Z,1.77
2023-05-25T03:41:00.840Z,1.98
2023-05-25T03:43:04.176Z,2.25
2023-05-25T03:45:09.669Z,1.90
2023-05-25T03:47:15.285Z,1.88
2023-05-25T03:49:19.074Z,1.63
2023-05-25T03:51:22.418Z,2.10
2023-05-25T03:53:25.804Z,1.98
2023-05-25T03:55:29.552Z,1.63
2023-05-25T03:57:32.943Z,1.67
2023-05-25T03:59:36.305Z,2.53
2023-05-25T04:01:40.166Z,2.05
2023-05-25T04:03:45.087Z,2.03
2023-05-25T04:05:48.506Z,1.92
2023-05-25T04:07:52.280Z,2.17
2023-05-25T04:09:55.576Z,1.98
2023-05-25T04:11:59.599Z,2.00
2023-05-25T04:14:02.953Z,2.03
2023-05-25T04:16:10.480Z,2.00
2023-05-25T04:18:14.086Z,2.45
2023-05-25T04:20:19.336Z,2.40
2023-05-25T04:22:22.822Z,1.65
2023-05-25T04:24:26.479Z,2.50
2023-05-25T04:26:30.594Z,2.10
2023-05-25T04:28:34.285Z,2.35
2023-05-25T04:30:48.773Z,1.92
2023-05-25T04:33:12.201Z,2.10
2023-05-25T04:35:36.916Z,2.20
2023-05-25T04:37:40.978Z,2.45
2023-05-25T04:39:45.626Z,2.22
2023-05-25T04:41:49.616Z,2.17
2023-05-25T04:44:07.919Z,2.92
2023-05-25T04:46:17.216Z,1.95
2023-05-25T04:48:21.643Z,1.92
2023-05-25T04:50:25.096Z,2.15
2023-05-25T04:52:30.684Z,2.22
2023-05-25T04:54:34.176Z,2.60
2023-05-25T04:56:38.852Z,2.28
2023-05-25T04:58:42.892Z,2.63
2023-05-25T05:00:47.318Z,2.35
2023-05-25T05:02:51.645Z,1.85
2023-05-25T05:04:55.293Z,3.95
2023-05-25T05:07:00.020Z,1.98
2023-05-25T05:09:07.410Z,2.30
2023-05-25T05:13:14.258Z,2.80
2023-05-25T05:15:18.781Z,1.88
2023-05-25T05:17:24.174Z,2.45
2023-05-25T05:19:27.944Z,2.58
2023-05-25T05:21:32.402Z,2.10
2023-05-25T05:23:37.626Z,2.20
2023-05-25T05:25:42.526Z,2.92
2023-05-25T05:27:46.095Z,2.55
2023-05-25T05:29:54.714Z,2.25
2023-05-25T05:31:58.240Z,2.00
2023-05-25T05:34:04.191Z,2.63
2023-05-25T05:36:09.193Z,2.38
2023-05-25T05:38:13.575Z,2.17
2023-05-25T05:40:17.250Z,2.22
2023-05-25T05:42:22.126Z,2.53
2023-05-25T05:44:29.084Z,2.05
2023-05-25T05:46:33.958Z,1.80
2023-05-25T05:48:37.478Z,2.00
2023-05-25T05:50:42.496Z,2.22
2023-05-25T05:52:48.193Z,1.85
2023-05-25T05:54:51.472Z,2.17
2023-05-25T05:56:54.860Z,2.47
2023-05-25T05:58:59.901Z,2.47
2023-05-25T06:01:04.687Z,2.30
2023-05-25T06:03:08.215Z,1.80
2023-05-25T06:05:11.737Z,2.15
2023-05-25T06:07:17.937Z,2.10
2023-05-25T06:09:21.317Z,1.90
2023-05-25T06:11:24.659Z,2.38
2023-05-25T06:13:28.313Z,2.00
2023-05-25T06:15:33.634Z,1.98
2023-05-25T06:17:39.126Z,2.17
2023-05-25T06:19:43.857Z,2.13
2023-05-25T06:21:47.187Z,2.75
2023-05-25T06:23:50.702Z,2.08
2023-05-25T06:27:58.800Z,2.63
2023-05-25T06:30:02.764Z,2.25
2023-05-25T06:32:10.961Z,2.50
2023-05-25T06:34:15.382Z,2.30
2023-05-25T06:36:20.256Z,2.47
2023-05-25T06:38:24.270Z,2.67
2023-05-25T06:40:28.073Z,2.25
2023-05-25T06:42:32.205Z,2.30
2023-05-25T06:46:45.196Z,2.28
2023-05-25T06:48:50.703Z,2.30
2023-05-25T06:50:54.749Z,2.40
2023-05-25T06:53:00.333Z,2.50
2023-05-25T06:55:05.532Z,2.35
2023-05-25T06:57:09.248Z,2.25
2023-05-25T06:59:13.257Z,2.60
2023-05-25T07:01:17.412Z,2.72
2023-05-25T07:03:21.205Z,2.78
2023-05-25T07:05:26.324Z,2.90
2023-05-25T07:07:29.891Z,2.33
2023-05-25T07:09:34.133Z,2.22
2023-05-25T07:11:37.850Z,2.28
2023-05-25T07:13:41.609Z,1.92
2023-05-25T07:15:45.781Z,2.78
2023-05-25T07:17:50.385Z,2.22
2023-05-25T07:19:54.173Z,2.45
2023-05-25T07:21:59.282Z,2.45
2023-05-25T07:24:03.004Z,2.13
2023-05-25T07:26:06.701Z,2.40
2023-05-25T07:28:10.661Z,3.15
2023-05-25T07:30:15.285Z,2.50
2023-05-25T07:32:18.861Z,2.60
2023-05-25T07:34:22.545Z,2.00
2023-05-25T07:36:26.126Z,2.20
2023-05-25T07:38:31.214Z,2.83
2023-05-25T07:40:35.175Z,2.15
2023-05-25T07:42:38.699Z,1.90
2023-05-25T07:44:43.041Z,2.40
2023-05-25T07:46:46.849Z,2.45
2023-05-25T07:48:50.972Z,2.47
2023-05-25T07:50:54.716Z,2.60
2023-05-25T07:53:00.033Z,2.33
2023-05-25T07:55:05.190Z,1.90
2023-05-25T07:57:09.214Z,2.72
2023-05-25T07:59:12.857Z,2.10
2023-05-25T08:01:17.612Z,2.33
2023-05-25T08:03:31.664Z,1.83
2023-05-25T08:05:40.196Z,1.90
2023-05-25T08:07:43.992Z,2.33
2023-05-25T08:09:47.805Z,2.50
2023-05-25T08:11:55.994Z,2.22
2023-05-25T08:14:07.572Z,2.28
2023-05-25T08:16:11.778Z,2.40
2023-05-25T08:18:15.630Z,2.65
2023-05-25T08:20:20.149Z,2.47
2023-05-25T08:22:23.858Z,2.50
2023-05-25T08:24:27.545Z,2.00
2023-05-25T08:26:45.369Z,1.80
2023-05-25T08:28:56.566Z,2.33
2023-05-25T08:31:00.319Z,1.77
2023-05-25T08:33:04.193Z,1.75
2023-05-25T08:35:08.385Z,2.28
2023-05-25T08:37:12.483Z,1.90
2023-05-25T08:39:17.077Z,2.00
2023-05-25T08:43:25.152Z,1.80
2023-05-25T08:45:36.059Z,1.67
2023-05-25T08:47:44.998Z,2.00
2023-05-25T08:49:51.110Z,2.08
2023-05-25T08:51:55.970Z,1.67
2023-05-25T08:56:11.708Z,2.33
2023-05-25T08:58:20.914Z,1.90
2023-05-25T09:00:34.314Z,1.95
2023-05-25T09:02:43.761Z,2.25
2023-05-25T09:04:47.564Z,1.58
2023-05-25T09:07:02.063Z,2.30
2023-05-25T09:09:13.131Z,1.98
2023-05-25T09:11:22.984Z,2.20
2023-05-25T09:13:39.038Z,1.63
2023-05-25T09:15:45.559Z,1.40
2023-05-25T09:17:49.438Z,1.98
2023-05-25T09:19:53.147Z,1.60
2023-05-25T09:22:13.469Z,1.42
2023-05-25T09:24:19.365Z,1.67
2023-05-25T09:28:27.809Z,1.98
2023-05-25T09:30:33.122Z,1.80
2023-05-25T09:32:40.463Z,2.20
2023-05-25T09:34:45.240Z,2.60
2023-05-25T09:36:48.997Z,1.58
2023-05-25T09:38:55.100Z,1.40
2023-05-25T09:40:59.557Z,1.70
2023-05-25T09:43:04.215Z,2.13
2023-05-25T09:45:08.836Z,2.88
2023-05-25T09:47:14.240Z,1.92
2023-05-25T09:49:20.075Z,1.80
2023-05-25T09:51:23.769Z,1.50
2023-05-25T09:53:28.401Z,1.70
2023-05-25T09:55:48.135Z,1.50
2023-05-25T09:57:56.934Z,1.88
2023-05-25T10:00:01.626Z,1.95
2023-05-25T10:02:16.010Z,2.00
2023-05-25T10:04:21.211Z,2.33
2023-05-25T10:06:25.380Z,1.30
2023-05-25T10:08:30.082Z,1.83
2023-05-25T10:12:39.121Z,1.70
2023-05-25T10:14:45.208Z,1.38
2023-05-25T10:16:52.574Z,1.77
2023-05-25T10:19:01.851Z,1.88
2023-05-25T10:21:10.986Z,1.50
2023-05-25T10:23:18.163Z,1.40
2023-05-25T10:25:27.552Z,2.03
2023-05-25T10:27:36.254Z,1.40
2023-05-25T10:29:41.985Z,1.98
2023-05-25T10:31:47.644Z,2.47
2023-05-25T10:33:52.593Z,3.00
2023-05-25T10:36:09.503Z,1.80
2023-05-25T10:38:17.192Z,2.00
2023-05-25T10:40:22.871Z,2.47
2023-05-25T10:42:28.336Z,1.67
2023-05-25T10:44:32.500Z,2.17
2023-05-25T10:46:37.610Z,1.58
2023-05-25T10:48:41.957Z,2.05
2023-05-25T10:50:52.014Z,1.50
2023-05-25T10:53:03.424Z,1.80
2023-05-25T10:55:10.324Z,2.00
2023-05-25T10:57:19.020Z,1.48
2023-05-25T10:59:28.827Z,1.65
2023-05-25T11:01:33.813Z,1.90
2023-05-25T11:03:52.584Z,1.45
2023-05-25T11:05:56.542Z,1.77
2023-05-25T11:08:01.305Z,1.92
2023-05-25T11:14:22.829Z,1.17
2023-05-25T11:16:36.357Z,1.70
2023-05-25T11:18:40.233Z,1.85
2023-05-25T11:20:44.704Z,1.58
2023-05-25T11:24:55.672Z,1.35
2023-05-25T11:27:01.668Z,1.40
2023-05-25T11:29:16.410Z,1.42
2023-05-25T11:31:29.292Z,1.40
2023-05-25T11:33:33.850Z,1.98
2023-05-25T11:35:40.264Z,1.83
2023-05-25T11:37:53.879Z,1.35
2023-05-25T11:39:57.681Z,1.83
2023-05-25T11:42:07.186Z,1.95
2023-05-25T11:44:11.273Z,1.50
2023-05-25T11:46:18.913Z,2.30
2023-05-25T11:48:22.609Z,1.30
2023-05-25T11:50:26.566Z,1.30
2023-05-25T11:52:30.209Z,1.60
2023-05-25T11:54:34.859Z,1.90
2023-05-25T12:00:45.656Z,1.40
2023-05-25T12:02:51.251Z,1.50
2023-05-25T12:04:56.459Z,2.22
2023-05-25T12:07:04.378Z,1.63
2023-05-25T12:09:13.110Z,1.40
2023-05-25T12:11:17.143Z,1.40
2023-05-25T12:13:20.948Z,1.70
2023-05-25T12:15:26.207Z,1.50
2023-05-25T12:17:30.469Z,1.60
2023-05-25T12:19:36.775Z,1.23
2023-05-25T12:21:41.628Z,1.52
2023-05-25T12:23:45.922Z,1.70
2023-05-25T12:25:51.455Z,1.55
2023-05-25T12:28:12.712Z,1.52
2023-05-25T12:30:16.659Z,1.65
2023-05-25T12:32:20.527Z,1.65
2023-05-25T12:34:29.191Z,2.10
2023-05-25T12:36:44.947Z,1.58
2023-05-25T12:39:00.154Z,2.25
2023-05-25T12:41:07.462Z,2.85
2023-05-25T12:43:12.145Z,2.45
2023-05-25T12:47:21.348Z,2.03
2023-05-25T12:49:35.711Z,3.05
2023-05-25T12:51:43.955Z,2.83
2023-05-25T12:53:52.134Z,2.53
2023-05-25T12:56:03.047Z,2.42
2023-05-25T12:58:08.496Z,2.20
2023-05-25T13:00:13.636Z,2.95
2023-05-25T13:02:17.376Z,3.28
2023-05-25T13:04:21.547Z,2.60
2023-05-25T13:06:25.432Z,2.60
2023-05-25T13:08:30.819Z,2.30
2023-05-25T13:10:35.979Z,2.47
2023-05-25T13:12:39.808Z,2.63
2023-05-25T13:14:43.497Z,2.25
2023-05-25T13:16:47.508Z,2.63
2023-05-25T13:18:51.531Z,2.63
2023-05-25T13:20:56.791Z,2.72
2023-05-25T13:23:00.867Z,2.33
2023-05-25T13:25:06.657Z,2.25
2023-05-25T13:27:10.324Z,3.20
2023-05-25T13:29:14.054Z,2.47
2023-05-25T13:31:17.668Z,2.70
2023-05-25T13:33:21.243Z,2.53
2023-05-25T13:35:38.076Z,3.08
2023-05-25T13:39:44.998Z,2.70
2023-05-25T13:41:49.929Z,2.13
2023-05-25T13:43:53.552Z,2.67
2023-05-25T13:45:59.330Z,2.53
2023-05-25T13:48:03.710Z,2.40
2023-05-25T13:50:09.154Z,2.10
2023-05-25T13:52:13.249Z,2.78
2023-05-25T13:54:17.607Z,2.40
2023-05-25T13:56:21.617Z,2.22
2023-05-25T13:58:27.566Z,2.53
2023-05-25T14:00:31.743Z,2.80
2023-05-25T14:02:36.077Z,2.15
2023-05-25T14:04:41.272Z,2.10
2023-05-25T14:06:51.823Z,2.83
2023-05-25T14:09:36.388Z,2.55
2023-05-25T14:11:44.172Z,2.08
2023-05-25T14:15:54.188Z,2.80
2023-05-25T14:17:58.596Z,2.35
2023-05-25T14:20:04.544Z,2.70
2023-05-25T14:22:13.986Z,5.30
2023-05-25T14:24:25.955Z,2.58
2023-05-25T14:26:29.931Z,2.55
2023-05-25T14:28:33.614Z,3.20
2023-05-25T14:30:40.504Z,2.67
2023-05-25T14:32:44.368Z,2.50
2023-05-25T14:34:48.211Z,2.30
2023-05-25T14:36:51.811Z,2.20
2023-05-25T14:38:55.861Z,2.50
2023-05-25T14:40:59.585Z,2.47
2023-05-25T14:43:03.464Z,2.38
2023-05-25T14:45:10.788Z,2.47
2023-05-25T14:47:16.700Z,2.30
2023-05-25T14:49:21.684Z,2.40
2023-05-25T14:51:26.848Z,2.47
2023-05-25T14:53:30.733Z,2.53
2023-05-25T14:55:34.581Z,2.78
2023-05-25T14:57:38.398Z,2.80
2023-05-25T14:59:42.171Z,3.00
2023-05-25T15:01:46.911Z,2.28
2023-05-25T15:05:56.669Z,2.80
2023-05-25T15:08:00.500Z,2.13
2023-05-25T15:10:04.285Z,2.65
2023-05-25T15:12:08.326Z,2.40
2023-05-25T15:14:12.809Z,2.30
2023-05-25T15:16:17.621Z,2.72
2023-05-25T15:20:26.007Z,2.50
2023-05-25T15:22:29.711Z,2.28
2023-05-25T15:24:33.551Z,2.78
2023-05-25T15:26:37.379Z,2.42
2023-05-25T15:28:40.936Z,2.35
2023-05-25T15:30:44.745Z,2.85
2023-05-25T15:32:48.514Z,2.58
2023-05-25T15:34:52.624Z,2.75
2023-05-25T15:36:57.667Z,2.72
2023-05-25T15:39:01.743Z,2.33
2023-05-25T15:41:05.587Z,3.25
2023-05-25T15:43:09.471Z,2.90
2023-05-25T15:45:13.779Z,2.13
2023-05-25T15:47:17.809Z,2.55
2023-05-25T15:49:21.774Z,2.50
2023-05-25T15:51:25.465Z,3.30
2023-05-25T15:53:32.160Z,2.88
2023-05-25T15:55:35.886Z,2.33
2023-05-25T15:57:39.717Z,2.65
2023-05-25T15:59:43.280Z,2.70
2023-05-25T16:01:46.891Z,2.40
2023-05-25T16:03:50.731Z,2.13
2023-05-25T16:05:54.640Z,1.95
2023-05-25T16:07:59.012Z,2.28
2023-05-25T16:10:05.296Z,2.35
2023-05-25T16:12:09.596Z,2.65
2023-05-25T16:14:13.464Z,2.55
2023-05-25T16:16:19.483Z,2.50
2023-05-25T16:18:23.458Z,2.75
2023-05-25T16:20:27.632Z,2.03
2023-05-25T16:22:31.895Z,2.78
2023-05-25T16:24:35.795Z,2.95
2023-05-25T16:26:40.986Z,2.45
2023-05-25T16:28:45.064Z,2.05
2023-05-25T16:30:48.744Z,2.38
2023-05-25T16:32:52.704Z,2.22
2023-05-25T16:34:56.872Z,2.88
2023-05-25T16:37:00.466Z,4.32
2023-05-25T16:39:05.300Z,2.03
2023-05-25T16:41:09.075Z,3.08
2023-05-25T16:43:14.403Z,2.20
2023-05-25T16:45:18.458Z,2.28
2023-05-25T16:47:22.839Z,2.05
2023-05-25T16:49:26.446Z,2.58
2023-05-25T16:51:30.030Z,2.15
2023-05-25T16:53:33.728Z,2.20
2023-05-25T16:55:38.014Z,2.40
2023-05-25T16:57:42.249Z,2.75
2023-05-25T16:59:47.990Z,2.60
2023-05-25T17:01:52.460Z,2.78
2023-05-25T17:03:56.381Z,2.63
2023-05-25T17:06:00.757Z,2.45
2023-05-25T17:08:05.253Z,1.92
2023-05-25T17:10:10.336Z,2.10
2023-05-25T17:12:16.393Z,2.35
2023-05-25T17:14:22.688Z,2.63
2023-05-25T17:16:28.852Z,2.70
2023-05-25T17:18:33.741Z,2.83
2023-05-25T17:20:38.916Z,3.05
2023-05-25T17:22:43.824Z,2.40
2023-05-25T17:24:48.250Z,2.72
2023-05-25T17:26:52.548Z,2.40
2023-05-25T17:28:58.093Z,3.17
2023-05-25T17:31:02.478Z,2.95
2023-05-25T17:33:09.030Z,2.22
2023-05-25T17:35:15.009Z,4.38
2023-05-25T17:37:21.045Z,2.80
2023-05-25T17:39:26.126Z,2.47
2023-05-25T17:41:32.161Z,2.47
2023-05-25T17:43:36.067Z,3.83
2023-05-25T17:45:39.957Z,2.90
2023-05-25T17:47:44.123Z,3.13
2023-05-25T17:51:55.940Z,2.60
2023-05-25T17:54:00.338Z,2.78
2023-05-25T17:56:04.348Z,2.65
2023-05-25T17:58:08.114Z,3.10
2023-05-25T18:00:13.933Z,2.97
2023-05-25T18:02:19.091Z,3.17
2023-05-25T18:04:23.005Z,2.65
2023-05-25T18:06:29.408Z,3.28
2023-05-25T18:08:33.380Z,3.15
2023-05-25T18:10:37.267Z,3.08
2023-05-25T18:12:41.765Z,3.17
2023-05-25T18:14:45.509Z,3.25
2023-05-25T18:16:49.465Z,3.40
2023-05-25T18:18:53.911Z,3.55
2023-05-25T18:20:57.694Z,3.22
2023-05-25T18:23:03.605Z,3.72
2023-05-25T18:25:08.318Z,3.30
2023-05-25T18:29:17.694Z,2.83
2023-05-25T18:31:21.966Z,3.40
2023-05-25T18:33:26.227Z,3.08
2023-05-25T18:35:32.268Z,4.35
2023-05-25T18:37:36.933Z,3.83
2023-05-25T18:39:42.675Z,3.08
2023-05-25T18:41:47.018Z,2.40
2023-05-25T18:43:50.811Z,2.88
2023-05-25T18:45:54.849Z,2.97
2023-05-25T18:47:59.136Z,3.55
2023-05-25T18:50:07.620Z,3.05
2023-05-25T18:52:11.751Z,2.28
2023-05-25T18:54:17.051Z,3.25
2023-05-25T18:56:23.247Z,2.78
2023-05-25T18:58:27.282Z,2.75
2023-05-25T19:00:31.123Z,3.58
2023-05-25T19:02:36.376Z,2.50
2023-05-25T19:04:40.105Z,2.60
2023-05-25T19:06:43.916Z,3.20
2023-05-25T19:08:49.600Z,3.85
2023-05-25T19:10:53.308Z,3.20
2023-05-25T19:13:00.167Z,2.80
2023-05-25T19:15:03.970Z,3.33
2023-05-25T19:17:08.665Z,2.80
2023-05-25T19:19:12.863Z,2.60
2023-05-25T19:21:18.096Z,2.50
2023-05-25T19:23:24.600Z,3.75
2023-05-25T19:25:29.136Z,2.47
2023-05-25T19:27:34.653Z,3.10
2023-05-25T19:29:41.578Z,3.03
2023-05-25T19:31:52.533Z,2.85
2023-05-25T19:34:00.397Z,2.90
2023-05-25T19:36:08.916Z,3.90
2023-05-25T19:38:20.749Z,2.90
2023-05-25T19:40:34.169Z,3.30
2023-05-25T19:42:42.338Z,3.33
2023-05-25T19:44:50.487Z,3.33
2023-05-25T19:46:58.244Z,3.28
2023-05-25T19:49:04.421Z,3.20
2023-05-25T19:51:15.713Z,3.47
2023-05-25T19:53:25.067Z,2.90
2023-05-25T19:55:31.930Z,3.28
2023-05-25T19:57:40.211Z,3.13
2023-05-25T19:59:53.970Z,3.38
2023-05-25T20:02:03.746Z,3.17
2023-05-25T20:04:16.486Z,3.22
2023-05-25T20:06:41.372Z,3.03
2023-05-25T20:09:02.231Z,3.08
2023-05-25T20:11:18.313Z,3.20
2023-05-25T20:13:24.744Z,3.20
2023-05-25T20:15:34.828Z,2.92
2023-05-25T20:17:43.614Z,3.30
2023-05-25T20:19:54.357Z,2.88
2023-05-25T20:22:06.962Z,2.97
2023-05-25T20:24:15.721Z,3.08
2023-05-25T20:26:30.737Z,5.18
2023-05-25T20:28:41.344Z,2.70
2023-05-25T20:30:49.047Z,2.75
2023-05-25T20:32:56.163Z,2.90
2023-05-25T20:35:05.500Z,2.90
2023-05-25T20:37:09.864Z,2.95
2023-05-25T20:39:14.958Z,3.15
2023-05-25T20:41:22.066Z,3.20
2023-05-25T20:43:31.291Z,2.90
2023-05-25T20:45:39.188Z,2.70
2023-05-25T20:47:45.627Z,2.42
2023-05-25T20:49:50.011Z,3.38
2023-05-25T20:51:59.564Z,2.58
2023-05-25T20:54:10.425Z,2.47
2023-05-25T20:58:19.556Z,2.35
2023-05-25T21:00:24.012Z,3.40
2023-05-25T21:02:32.084Z,2.63
2023-05-25T21:04:37.466Z,3.00
2023-05-25T21:06:43.757Z,2.78
2023-05-25T21:08:47.559Z,3.25
2023-05-25T21:10:51.259Z,3.40
2023-05-25T21:12:55.027Z,2.97
2023-05-25T21:14:58.856Z,3.33
2023-05-25T21:17:02.606Z,2.97
2023-05-25T21:19:06.533Z,2.95
2023-05-25T21:21:15.130Z,3.13
2023-05-25T21:23:22.825Z,3.45
2023-05-25T21:25:28.189Z,3.13
2023-05-25T21:27:32.347Z,3.28
2023-05-25T21:29:36.486Z,3.58
2023-05-25T21:31:40.302Z,8.70
2023-05-25T21:33:46.187Z,3.00
2023-05-25T21:35:49.882Z,3.22
2023-05-25T21:37:55.126Z,3.22
2023-05-25T21:39:58.785Z,2.97
2023-05-25T21:42:03.725Z,2.63
2023-05-25T21:46:10.501Z,2.50
2023-05-25T21:48:14.236Z,3.00
2023-05-25T21:50:17.982Z,3.30
2023-05-25T21:52:22.298Z,3.25
2023-05-25T21:54:27.551Z,2.97
2023-05-25T21:56:31.077Z,3.92
2023-05-25T21:58:34.787Z,4.47
2023-05-25T22:00:38.662Z,2.92
2023-05-25T22:02:42.592Z,3.70
2023-05-25T22:04:46.193Z,3.30
2023-05-25T22:06:53.132Z,2.83
2023-05-25T22:08:56.969Z,3.55
2023-05-25T22:11:02.126Z,3.80
2023-05-25T22:13:06.426Z,2.70
2023-05-25T22:15:10.999Z,3.00
2023-05-25T22:19:19.184Z,3.00
2023-05-25T22:21:22.893Z,3.40
2023-05-25T22:23:28.202Z,3.05
2023-05-25T22:25:31.938Z,3.13
2023-05-25T22:27:37.272Z,3.28
2023-05-25T22:29:41.240Z,3.45
2023-05-25T22:31:44.841Z,3.38
2023-05-25T22:33:48.505Z,2.92
2023-05-25T22:35:52.776Z,3.38
2023-05-25T22:37:56.591Z,3.22
2023-05-25T22:40:00.245Z,2.78
2023-05-25T22:42:03.973Z,3.30
2023-05-25T22:44:09.059Z,3.20
2023-05-25T22:46:13.055Z,3.33
2023-05-25T22:48:16.784Z,3.28
2023-05-25T22:50:20.435Z,2.60
2023-05-25T22:52:24.342Z,3.20
2023-05-25T22:54:28.122Z,2.88
2023-05-25T22:56:31.904Z,3.10
2023-05-25T22:58:35.634Z,3.17
2023-05-25T23:00:40.671Z,2.90
2023-05-25T23:02:44.162Z,2.30
2023-05-25T23:04:47.624Z,2.05
2023-05-25T23:06:50.945Z,2.38
2023-05-25T23:08:54.349Z,2.45
2023-05-25T23:10:57.728Z,2.60
2023-05-25T23:13:01.188Z,2.35
2023-05-25T23:15:07.075Z,2.13
2023-05-25T23:17:11.908Z,2.90
2023-05-25T23:21:18.324Z,2.10
2023-05-25T23:23:21.660Z,2.22
2023-05-25T23:25:26.326Z,1.95
2023-05-25T23:27:29.677Z,2.10
2023-05-25T23:29:32.962Z,2.13
2023-05-25T23:31:36.269Z,3.03
2023-05-25T23:33:41.170Z,2.10
2023-05-25T23:37:48.032Z,1.83
2023-05-25T23:39:51.436Z,2.03
2023-05-25T23:41:54.973Z,1.80
2023-05-25T23:43:58.272Z,1.75
2023-05-25T23:46:02.553Z,1.88
2023-05-25T23:48:06.191Z,2.17
2023-05-25T23:50:12.058Z,1.85
2023-05-25T23:52:15.480Z,1.92
2023-05-25T23:54:18.818Z,1.85
2023-05-25T23:56:23.003Z,1.60
2023-05-25T23:58:26.307Z,1.88
